Time;durP1;ratioP1;P1;durP2;ratioP2;P2;SDS_P1;SDS_P2;PMS_P1;PMS_P2;Temp;Humidity;BMP_temperature;BMP_pressure;BME280_temperature;BME280_humidity;BME280_pressure;Samples;Min_cycle;Max_cycle;Signal;HPM_P1;HPM_P2
2022/11/30 00:04:58;;;;;;;54.70;35.33;;;;;;;3.54;90.29;100477.53;10384513;28;20042;-75
2022/11/30 00:10:00;;;;;;;47.80;33.17;;;;;;;3.59;90.67;100487.97;10383114;28;20088;-75
2022/11/30 00:15:02;;;;;;;55.50;35.25;;;;;;;3.46;90.96;100484.44;10382979;28;20046;-74
2022/11/30 00:20:04;;;;;;;60.53;34.78;;;;;;;3.73;89.66;100486.28;10381099;28;20476;-76
2022/11/30 00:25:06;;;;;;;58.72;34.83;;;;;;;3.65;89.82;100490.56;10382340;28;20042;-75
2022/11/30 00:30:08;;;;;;;60.30;36.40;;;;;;;3.75;89.48;100494.94;10381574;28;20458;-75
2022/11/30 00:35:10;;;;;;;53.13;33.55;;;;;;;3.79;88.35;100493.22;10382494;28;20046;-76
2022/11/30 00:40:13;;;;;;;56.97;35.33;;;;;;;3.54;90.06;100494.84;10383666;28;20046;-75
2022/11/30 00:45:14;;;;;;;53.35;33.60;;;;;;;3.76;88.42;100493.19;10382823;28;20038;-75
2022/11/30 00:50:16;;;;;;;51.33;32.67;;;;;;;3.68;89.22;100497.53;10380979;28;20046;-76
2022/11/30 00:55:18;;;;;;;58.10;34.53;;;;;;;3.72;89.14;100499.28;10381653;28;20044;-75
2022/11/30 01:00:19;;;;;;;53.92;32.67;;;;;;;3.73;87.95;100494.06;10381019;28;20061;-74
2022/11/30 01:05:21;;;;;;;54.03;34.53;;;;;;;3.68;89.16;100493.19;10381169;28;20045;-74
2022/11/30 01:10:23;;;;;;;48.72;32.65;;;;;;;3.83;86.99;100487.16;10379833;28;20048;-76
2022/11/30 01:15:25;;;;;;;51.97;32.58;;;;;;;3.57;88.59;100494.00;10393721;23;20487;-72
2022/11/30 01:20:26;;;;;;;56.63;32.53;;;;;;;3.79;86.21;100491.47;10380349;28;20050;-72
2022/11/30 01:25:28;;;;;;;52.40;32.90;;;;;;;3.65;88.10;100487.09;10378844;28;20042;-72
2022/11/30 01:30:30;;;;;;;48.20;31.63;;;;;;;3.49;89.87;100486.16;10379884;28;20153;-73
2022/11/30 01:35:32;;;;;;;40.22;30.23;;;;;;;3.34;90.43;100488.72;10380560;28;20056;-72
2022/11/30 01:40:33;;;;;;;39.28;30.33;;;;;;;3.22;91.16;100486.91;10377736;28;20129;-72
2022/11/30 01:45:36;;;;;;;44.65;31.40;;;;;;;3.54;89.33;100492.25;10377594;28;20050;-72
2022/11/30 01:50:38;;;;;;;42.35;29.40;;;;;;;3.43;89.01;100494.81;10377941;28;20530;-72
2022/11/30 01:55:43;;;;;;;35.55;28.40;;;;;;;3.21;91.12;100493.84;10376869;28;20100;-71
2022/11/30 02:00:46;;;;;;;45.97;31.27;;;;;;;3.28;90.45;100498.22;10377549;28;20053;-71
2022/11/30 02:05:48;;;;;;;38.00;29.77;;;;;;;3.11;91.93;100492.06;10359697;28;20045;-71
2022/11/30 02:10:57;;;;;;;43.25;30.40;;;;;;;3.16;92.40;100499.88;10375669;28;20446;-71
2022/11/30 02:16:26;;;;;;;38.72;29.83;;;;;;;3.24;91.37;100495.59;10376793;28;20130;-71
2022/11/30 02:21:43;;;;;;;46.78;31.85;;;;;;;3.38;89.98;100501.72;10374395;28;20050;-71
2022/11/30 02:27:08;;;;;;;38.78;28.90;;;;;;;3.34;89.87;100505.16;10376719;28;20092;-72
2022/11/30 02:32:26;;;;;;;42.83;30.30;;;;;;;3.28;90.41;100508.59;10375028;28;20070;-72
2022/11/30 02:37:29;;;;;;;48.13;31.67;;;;;;;3.22;90.72;100498.16;10374356;28;20045;-72
2022/11/30 02:42:31;;;;;;;42.47;31.90;;;;;;;3.29;90.10;100494.75;10376316;28;20045;-72
2022/11/30 02:47:42;;;;;;;42.50;31.75;;;;;;;3.41;88.22;100495.66;10375061;28;20079;-72
2022/11/30 02:52:45;;;;;;;38.78;30.10;;;;;;;3.48;87.44;100494.84;10374450;28;20041;-72
2022/11/30 02:57:46;;;;;;;42.25;30.10;;;;;;;3.34;87.54;100507.75;10375425;28;20500;-72
2022/11/30 03:02:48;;;;;;;44.63;30.25;;;;;;;3.34;87.71;100509.50;10374738;28;20042;-72
2022/11/30 03:07:50;;;;;;;41.95;30.63;;;;;;;3.22;89.25;100510.28;10374323;28;20414;-72
2022/11/30 03:12:52;;;;;;;44.95;31.48;;;;;;;3.18;88.60;100521.50;10374385;28;20050;-72
2022/11/30 03:17:53;;;;;;;39.60;29.40;;;;;;;2.96;90.29;100521.38;10372992;28;20041;-72
2022/11/30 03:23:01;;;;;;;40.85;30.13;;;;;;;3.15;88.83;100526.72;10374216;28;20168;-72
2022/11/30 03:28:03;;;;;;;39.53;29.25;;;;;;;2.79;90.40;100520.41;10373556;28;20054;-72
2022/11/30 03:33:05;;;;;;;42.97;30.08;;;;;;;2.76;90.80;100528.16;10373942;28;20038;-72
2022/11/30 03:38:07;;;;;;;41.67;30.15;;;;;;;2.85;90.49;100535.16;10374365;28;20533;-72
2022/11/30 03:43:08;;;;;;;38.45;28.50;;;;;;;2.84;89.85;100530.84;10372697;28;20042;-72
2022/11/30 03:48:10;;;;;;;43.42;30.55;;;;;;;2.79;89.32;100528.19;10375198;28;20096;-72
2022/11/30 03:53:11;;;;;;;40.80;29.23;;;;;;;2.63;90.88;100537.56;10374068;28;20403;-72
2022/11/30 03:58:13;;;;;;;36.95;30.15;;;;;;;2.44;92.02;100533.97;10374102;28;20045;-72
2022/11/30 04:03:15;;;;;;;38.03;28.45;;;;;;;2.71;90.59;100530.72;10372506;28;20042;-72
2022/11/30 04:08:17;;;;;;;41.65;30.25;;;;;;;2.90;89.39;100539.53;10373328;28;20080;-72
2022/11/30 04:13:20;;;;;;;39.97;29.65;;;;;;;2.74;89.53;100537.66;10373473;28;20499;-72
2022/11/30 04:18:23;;;;;;;39.83;29.25;;;;;;;2.44;91.29;100540.88;10375499;28;20053;-72
2022/11/30 04:23:28;;;;;;;40.58;29.15;;;;;;;2.42;91.80;100538.25;10379411;28;20085;-72
2022/11/30 04:28:30;;;;;;;45.22;29.88;;;;;;;2.31;92.03;100539.03;10381404;28;20050;-72
2022/11/30 04:33:32;;;;;;;43.78;29.40;;;;;;;2.39;91.74;100543.44;10378979;28;20487;-72
2022/11/30 04:38:35;;;;;;;38.42;28.13;;;;;;;2.29;92.16;100538.97;10378783;28;20069;-72
2022/11/30 04:43:37;;;;;;;39.80;29.15;;;;;;;2.23;92.44;100542.41;10380403;28;20050;-72
2022/11/30 04:48:39;;;;;;;44.25;29.52;;;;;;;2.15;92.51;100540.56;10379668;28;20092;-72
2022/11/30 04:53:40;;;;;;;48.17;31.10;;;;;;;1.83;94.65;100537.63;10380804;28;20503;-72
2022/11/30 04:58:42;;;;;;;49.17;31.23;;;;;;;1.96;95.16;100547.28;10378364;28;20050;-72
2022/11/30 05:03:44;;;;;;;43.40;30.52;;;;;;;2.00;94.13;100551.66;10361747;28;20046;-72
2022/11/30 05:08:45;;;;;;;49.75;32.22;;;;;;;2.16;93.88;100555.28;10380259;28;20046;-72
2022/11/30 05:13:47;;;;;;;46.40;30.70;;;;;;;1.97;94.57;100557.66;10379474;28;20042;-72
2022/11/30 05:18:49;;;;;;;48.03;31.42;;;;;;;1.87;95.14;100567.94;10361174;28;20052;-72
2022/11/30 05:23:51;;;;;;;48.08;31.33;;;;;;;1.93;94.68;100565.41;10378489;28;20038;-72
2022/11/30 05:28:52;;;;;;;50.15;32.72;;;;;;;1.79;96.52;100570.41;10360052;28;20064;-72
2022/11/30 05:33:54;;;;;;;54.60;33.58;;;;;;;1.84;96.49;100583.44;10379893;28;20049;-73
2022/11/30 05:38:56;;;;;;;56.08;33.00;;;;;;;1.95;95.93;100589.63;10378443;28;20125;-73
2022/11/30 05:43:58;;;;;;;58.55;35.97;;;;;;;1.77;96.17;100585.97;10377527;28;20356;-73
2022/11/30 05:48:59;;;;;;;58.42;34.85;;;;;;;1.92;95.90;100597.38;10376971;28;20050;-73
2022/11/30 05:54:01;;;;;;;52.20;33.95;;;;;;;1.68;97.27;100597.91;10376008;28;20380;-73
2022/11/30 05:59:03;;;;;;;61.83;36.13;;;;;;;1.70;97.09;100597.09;10377181;28;20045;-73
2022/11/30 06:04:05;;;;;;;56.50;34.13;;;;;;;1.76;96.48;100598.88;10375529;28;20065;-73
2022/11/30 06:09:09;;;;;;;56.67;33.75;;;;;;;1.50;97.67;100609.75;10376923;28;20562;-73
2022/11/30 06:14:11;;;;;;;52.53;32.15;;;;;;;1.68;97.72;100610.88;10375362;28;20496;-73
2022/11/30 06:19:12;;;;;;;57.80;33.92;;;;;;;1.65;96.91;100606.53;10377842;28;20046;-73
2022/11/30 06:24:14;;;;;;;51.60;32.75;;;;;;;1.60;96.78;100604.72;10375354;28;20395;-72
2022/11/30 06:29:16;;;;;;;44.92;31.73;;;;;;;1.63;96.58;100609.94;10375527;28;20053;-71
2022/11/30 06:34:17;;;;;;;43.78;31.05;;;;;;;1.81;96.41;100610.16;10376120;28;20053;-72
2022/11/30 06:39:19;;;;;;;45.80;30.23;;;;;;;1.85;94.68;100611.97;10377474;28;20049;-72
2022/11/30 06:44:41;;;;;;;43.22;30.52;;;;;;;1.62;95.69;100609.06;10376084;28;20092;-71
2022/11/30 06:49:42;;;;;;;51.58;31.23;;;;;;;1.74;95.25;100614.41;10375031;28;20050;-72
2022/11/30 06:54:44;;;;;;;47.22;30.33;;;;;;;1.52;95.63;100614.97;10375816;28;20045;-72
2022/11/30 06:59:46;;;;;;;48.13;31.17;;;;;;;1.63;95.39;100633.25;10375080;28;20048;-72
2022/11/30 07:04:48;;;;;;;48.83;31.30;;;;;;;1.70;94.95;100643.75;10357156;28;20073;-71
2022/11/30 07:09:51;;;;;;;48.42;29.80;;;;;;;1.65;95.30;100639.34;10376201;28;20037;-72
2022/11/30 07:14:55;;;;;;;46.38;30.77;;;;;;;1.55;95.21;100646.13;10375018;28;20037;-73
2022/11/30 07:19:57;;;;;;;40.30;29.17;;;;;;;1.54;95.33;100649.53;10375009;28;20050;-73
2022/11/30 07:30:19;;;;;;;45.08;29.45;;;;;;;1.52;95.45;100665.06;10375587;28;20046;-73
2022/11/30 07:35:21;;;;;;;39.33;27.73;;;;;;;1.58;95.57;100666.00;10375535;28;20034;-71
2022/11/30 07:40:23;;;;;;;48.22;30.77;;;;;;;1.58;94.71;100668.59;10375122;28;20050;-72
2022/11/30 07:45:25;;;;;;;40.63;28.65;;;;;;;1.71;94.35;100670.53;10378352;28;20048;-72
2022/11/30 07:50:27;;;;;;;46.67;29.05;;;;;;;1.81;94.60;100659.44;10375453;28;20046;-72
2022/11/30 07:55:29;;;;;;;45.20;30.00;;;;;;;1.97;93.69;100668.28;10381147;28;20049;-72
2022/11/30 08:00:31;;;;;;;39.58;27.65;;;;;;;2.16;92.33;100672.84;10382660;28;20534;-71
2022/11/30 08:05:33;;;;;;;42.42;27.73;;;;;;;2.17;92.31;100669.44;10382443;28;20050;-71
2022/11/30 08:10:35;;;;;;;36.13;27.50;;;;;;;1.97;94.33;100666.56;10380668;28;20049;-71
2022/11/30 08:15:36;;;;;;;37.42;28.33;;;;;;;2.20;92.64;100672.03;10382004;28;20042;-71
2022/11/30 08:20:39;;;;;;;34.95;26.77;;;;;;;2.36;90.86;100673.09;10381105;28;20048;-71
2022/11/30 08:25:46;;;;;;;35.60;26.20;;;;;;;2.35;91.09;100676.56;10380261;28;20076;-71
2022/11/30 08:30:47;;;;;;;34.78;26.02;;;;;;;2.55;90.35;100674.19;10380997;28;20052;-71
2022/11/30 08:35:49;;;;;;;38.47;27.80;;;;;;;2.49;90.16;100675.00;10379228;28;20057;-71
2022/11/30 08:40:55;;;;;;;34.10;26.27;;;;;;;2.36;90.58;100691.28;10378944;28;20042;-71
2022/11/30 08:45:57;;;;;;;33.95;25.75;;;;;;;2.60;89.42;100698.47;10381759;28;20431;-72
2022/11/30 08:51:04;;;;;;;47.72;28.40;;;;;;;2.38;89.35;100696.47;10380373;28;20050;-72
2022/11/30 08:56:10;;;;;;;39.50;27.52;;;;;;;2.35;90.22;100699.03;10380167;28;20048;-72
2022/11/30 09:01:16;;;;;;;37.90;27.80;;;;;;;2.80;87.92;100703.00;10378568;28;20041;-72
2022/11/30 09:06:21;;;;;;;48.20;29.47;;;;;;;2.61;88.79;100712.31;10361978;28;20096;-72
2022/11/30 09:11:31;;;;;;;34.22;26.80;;;;;;;2.86;87.23;100706.53;10379906;28;20483;-72
2022/11/30 09:16:34;;;;;;;37.50;26.63;;;;;;;2.77;87.67;100712.50;10378644;28;20042;-72
2022/11/30 09:21:35;;;;;;;36.03;27.00;;;;;;;2.79;87.27;100709.94;10380226;28;20050;-72
2022/11/30 09:26:37;;;;;;;34.92;26.65;;;;;;;2.92;87.34;100708.31;10379918;28;20092;-72
2022/11/30 09:31:39;;;;;;;38.60;27.33;;;;;;;3.10;85.89;100708.50;10378505;28;20038;-72
2022/11/30 09:36:40;;;;;;;34.25;26.35;;;;;;;3.29;85.07;100696.56;10379163;28;20046;-72
2022/11/30 09:41:42;;;;;;;35.70;26.77;;;;;;;3.24;84.96;100704.31;10378996;28;20065;-72
2022/11/30 09:47:21;;;;;;;39.08;27.08;;;;;;;3.58;83.45;100696.75;10378352;28;20461;-72
2022/11/30 09:52:40;;;;;;;34.47;25.73;;;;;;;3.64;82.18;100704.63;10381022;28;20057;-72
2022/11/30 09:57:46;;;;;;;33.95;26.25;;;;;;;3.68;82.94;100692.53;10377657;28;20431;-72
2022/11/30 10:02:50;;;;;;;37.22;26.85;;;;;;;3.78;82.12;100687.38;10378124;28;20042;-72
2022/11/30 10:08:16;;;;;;;38.08;26.30;;;;;;;3.79;82.52;100691.72;10377497;28;20100;-72
2022/11/30 10:13:38;;;;;;;31.63;24.80;;;;;;;4.01;79.49;100689.25;10379532;28;20042;-72
2022/11/30 10:18:58;;;;;;;31.83;25.25;;;;;;;4.20;79.44;100693.66;10376106;28;20546;-72
2022/11/30 10:24:14;;;;;;;26.60;23.85;;;;;;;4.18;79.34;100697.13;10375746;28;20042;-72
2022/11/30 10:29:28;;;;;;;26.70;23.75;;;;;;;4.18;78.70;100698.00;10376162;28;20492;-72
2022/11/30 10:34:33;;;;;;;26.13;23.27;;;;;;;4.29;77.57;100696.34;10377676;28;20081;-72
2022/11/30 10:39:43;;;;;;;30.02;23.23;;;;;;;4.51;76.40;100691.19;10376395;28;20392;-72
2022/11/30 10:44:58;;;;;;;29.83;23.92;;;;;;;4.22;77.74;100688.47;10376510;28;20075;-72
2022/11/30 10:50:00;;;;;;;29.17;24.80;;;;;;;4.29;76.94;100688.53;10375218;28;20046;-72
2022/11/30 10:55:02;;;;;;;30.10;25.10;;;;;;;4.39;77.03;100691.16;10377623;28;20050;-72
2022/11/30 11:00:12;;;;;;;26.63;23.67;;;;;;;5.76;71.74;100680.00;10375579;28;20042;-72
2022/11/30 11:05:24;;;;;;;25.45;22.50;;;;;;;7.07;65.55;100689.88;10374342;28;20504;-72
2022/11/30 11:10:42;;;;;;;23.08;20.58;;;;;;;7.39;63.02;100680.94;10375936;28;20042;-72
2022/11/30 11:15:59;;;;;;;23.40;21.23;;;;;;;8.24;61.34;100687.06;10377101;28;20048;-70
2022/11/30 11:21:18;;;;;;;22.95;20.77;;;;;;;7.03;63.31;100690.78;10375273;28;20046;-73
2022/11/30 11:26:26;;;;;;;20.80;19.15;;;;;;;7.08;61.42;100682.91;10374875;28;20503;-72
2022/11/30 11:31:46;;;;;;;22.50;20.35;;;;;;;7.71;61.39;100678.03;10373069;28;20042;-71
2022/11/30 11:37:04;;;;;;;21.83;19.40;;;;;;;7.23;62.58;100679.34;10375013;28;20042;-71
2022/11/30 11:42:18;;;;;;;23.20;20.80;;;;;;;6.43;64.98;100673.75;10375334;28;20117;-71
2022/11/30 11:47:25;;;;;;;21.45;19.52;;;;;;;5.81;68.18;100668.69;10374208;28;20045;-72
2022/11/30 11:52:27;;;;;;;23.17;20.42;;;;;;;5.42;70.44;100673.97;10373290;28;20137;-72
2022/11/30 11:57:39;;;;;;;21.38;19.52;;;;;;;5.49;69.32;100687.00;10372988;28;20045;-72
2022/11/30 12:02:49;;;;;;;23.08;20.73;;;;;;;4.99;71.30;100674.81;10377062;28;20038;-72
2022/11/30 12:08:28;;;;;;;21.33;19.48;;;;;;;5.11;69.49;100683.50;10373453;28;20057;-71
2022/11/30 12:13:39;;;;;;;22.90;20.67;;;;;;;4.84;71.20;100677.41;10373095;28;20096;-71
2022/11/30 12:18:40;;;;;;;23.98;21.35;;;;;;;4.86;71.32;100678.25;10374911;28;20042;-71
2022/11/30 12:24:19;;;;;;;24.95;22.58;;;;;;;4.92;71.77;100674.81;10376092;28;20046;-71
2022/11/30 12:29:26;;;;;;;29.98;22.60;;;;;;;4.72;72.84;100670.41;10374794;28;20050;-72
2022/11/30 12:34:55;;;;;;;26.90;24.13;;;;;;;4.66;73.60;100672.16;10375392;28;20038;-72
2022/11/30 12:40:02;;;;;;;29.45;22.42;;;;;;;4.55;73.83;100669.50;10377218;28;20049;-72
2022/11/30 12:45:21;;;;;;;28.63;24.10;;;;;;;4.30;75.42;100676.38;10381131;28;20451;-72
2022/11/30 12:50:36;;;;;;;28.42;23.65;;;;;;;4.35;76.14;100676.41;10381457;28;20403;-72
2022/11/30 12:55:53;;;;;;;24.90;22.00;;;;;;;4.36;75.40;100679.00;10380552;28;20045;-72
2022/11/30 13:00:58;;;;;;;27.70;23.17;;;;;;;4.58;75.31;100676.47;10379466;28;20526;-72
2022/11/30 13:06:07;;;;;;;25.65;22.95;;;;;;;4.52;74.49;100678.19;10381342;28;20472;-72
2022/11/30 13:11:16;;;;;;;24.85;22.35;;;;;;;4.55;75.62;100672.97;10378680;28;20073;-72
2022/11/30 13:16:21;;;;;;;24.15;21.88;;;;;;;4.57;75.48;100679.94;10394555;23;20056;-71
2022/11/30 13:21:39;;;;;;;24.80;22.40;;;;;;;4.43;76.26;100678.16;10379025;28;20046;-71
2022/11/30 13:26:50;;;;;;;25.05;22.27;;;;;;;4.80;75.62;100678.25;10380054;28;20488;-71
2022/11/30 13:32:08;;;;;;;24.55;22.10;;;;;;;4.69;74.83;100685.16;10379986;28;20042;-71
2022/11/30 13:37:30;;;;;;;23.63;21.40;;;;;;;4.51;75.85;100683.38;10381772;28;20454;-71
2022/11/30 13:42:43;;;;;;;25.52;23.02;;;;;;;4.48;76.53;100686.00;10378995;28;20096;-71
2022/11/30 13:47:54;;;;;;;24.15;21.85;;;;;;;4.87;74.28;100689.53;10379627;28;20495;-71
2022/11/30 13:52:56;;;;;;;25.42;21.80;;;;;;;5.02;72.72;100698.25;10378772;28;20084;-71
2022/11/30 13:57:58;;;;;;;24.58;22.10;;;;;;;4.78;74.48;100700.81;10378218;28;20049;-71
2022/11/30 14:03:18;;;;;;;23.02;20.88;;;;;;;4.75;73.92;100706.91;10377638;28;20038;-71
2022/11/30 14:08:20;;;;;;;22.55;20.45;;;;;;;4.78;74.36;100711.22;10378634;28;20120;-71
2022/11/30 14:13:27;;;;;;;23.45;20.85;;;;;;;4.68;75.14;100706.88;10378984;28;20049;-70
2022/11/30 14:18:32;;;;;;;24.25;20.58;;;;;;;4.54;76.25;100701.63;10379649;28;20042;-71
2022/11/30 14:23:49;;;;;;;24.75;22.23;;;;;;;4.74;74.76;100706.91;10377988;28;20037;-71
2022/11/30 14:28:56;;;;;;;;;;;;;;;4.60;75.97;100713.78;10379090;28;20050;-70
2022/11/30 14:34:13;;;;;;;24.13;21.30;;;;;;;4.34;76.82;100706.75;10377657;28;19925;-71
2022/11/30 14:39:32;;;;;;;27.25;20.83;;;;;;;4.25;77.17;100711.91;10377202;28;20188;-70
2022/11/30 14:44:38;;;;;;;26.20;21.83;;;;;;;4.37;77.60;100717.16;10377386;28;20121;-70
2022/11/30 14:49:50;;;;;;;22.27;20.02;;;;;;;4.23;77.47;100709.28;10374560;28;20049;-70
2022/11/30 14:55:28;;;;;;;23.02;21.00;;;;;;;4.26;77.36;100711.06;10376015;28;20046;-70
2022/11/30 15:00:36;;;;;;;24.27;21.02;;;;;;;3.95;79.44;100712.63;10375979;28;20529;-70
2022/11/30 15:05:40;;;;;;;28.33;21.67;;;;;;;3.90;79.75;100716.94;10375728;28;20121;-70
2022/11/30 15:10:42;;;;;;;24.27;21.83;;;;;;;4.04;79.22;100713.53;10375467;28;20450;-71
2022/11/30 15:15:54;;;;;;;25.17;21.92;;;;;;;3.83;80.16;100720.34;10375321;28;20046;-71
2022/11/30 15:21:06;;;;;;;25.90;23.10;;;;;;;4.23;79.16;100724.91;10374011;28;20038;-71
2022/11/30 15:26:40;;;;;;;23.75;21.58;;;;;;;4.14;79.59;100726.59;10375327;28;20096;-71
2022/11/30 15:31:44;;;;;;;29.27;22.98;;;;;;;3.89;80.46;100730.78;10371371;28;20066;-71
2022/11/30 15:36:46;;;;;;;27.27;23.92;;;;;;;4.14;79.61;100726.59;10375465;28;20424;-71
2022/11/30 15:42:00;;;;;;;28.00;24.05;;;;;;;4.15;80.55;100734.41;10373603;28;20137;-70
2022/11/30 15:47:04;;;;;;;22.88;20.75;;;;;;;4.37;79.00;100735.38;10375023;28;20411;-71
2022/11/30 15:52:12;;;;;;;25.02;22.40;;;;;;;4.25;78.90;100731.00;10374953;28;20045;-71
2022/11/30 15:57:15;;;;;;;24.00;21.65;;;;;;;4.28;78.65;100730.13;10374878;28;20037;-71
2022/11/30 16:02:32;;;;;;;24.70;22.15;;;;;;;4.12;79.55;100738.72;10375111;28;20403;-71
2022/11/30 16:07:36;;;;;;;28.90;22.80;;;;;;;4.09;80.35;100741.31;10375613;28;20044;-71
2022/11/30 16:12:38;;;;;;;26.02;22.48;;;;;;;4.26;78.83;100737.94;10373105;28;20379;-72
2022/11/30 16:17:40;;;;;;;30.00;21.35;;;;;;;4.43;78.16;100730.22;10381713;28;20103;-70
2022/11/30 16:22:44;;;;;;;29.08;22.85;;;;;;;4.58;77.05;100731.16;10381850;28;20045;-71
2022/11/30 16:27:46;;;;;;;29.10;23.10;;;;;;;4.29;78.96;100730.16;10382113;28;20484;-71
2022/11/30 16:32:49;;;;;;;27.80;23.02;;;;;;;4.04;80.64;100730.88;10381617;28;20052;-71
2022/11/30 16:37:51;;;;;;;25.88;23.20;;;;;;;3.96;81.46;100727.38;10380392;28;20099;-71
2022/11/30 16:42:52;;;;;;;30.83;23.33;;;;;;;4.37;79.34;100730.19;10381702;28;20045;-71
2022/11/30 16:47:54;;;;;;;32.22;25.45;;;;;;;4.38;78.66;100737.13;10381085;28;20046;-71
2022/11/30 16:52:56;;;;;;;28.92;22.70;;;;;;;4.08;80.40;100742.19;10412081;28;20380;-71
2022/11/30 16:57:57;;;;;;;34.40;24.60;;;;;;;3.86;82.15;100747.25;10406967;28;20045;-71
2022/11/30 17:03:22;;;;;;;31.38;24.23;;;;;;;4.08;80.59;100744.78;10381023;28;20053;-71
2022/11/30 17:08:24;;;;;;;26.45;22.73;;;;;;;4.22;80.19;100745.72;10410153;28;20136;-71
2022/11/30 17:13:26;;;;;;;31.52;22.83;;;;;;;4.04;80.53;100752.56;10421756;28;20136;-71
2022/11/30 17:18:27;;;;;;;23.65;20.17;;;;;;;4.19;79.56;100758.72;10421125;28;20534;-71
2022/11/30 17:23:29;;;;;;;21.33;19.42;;;;;;;4.44;77.42;100757.13;10421000;28;20042;-71
2022/11/30 17:28:31;;;;;;;20.60;17.73;;;;;;;4.58;76.66;100762.38;10418448;28;20136;-71
2022/11/30 17:33:34;;;;;;;22.02;19.77;;;;;;;4.50;77.16;100765.81;10420834;28;20037;-71
2022/11/30 17:38:36;;;;;;;18.65;16.92;;;;;;;4.32;77.69;100770.94;10419665;28;20459;-71
2022/11/30 17:43:38;;;;;;;19.60;18.00;;;;;;;4.30;78.32;100780.47;10392185;28;20033;-70
2022/11/30 17:48:41;;;;;;;19.85;17.92;;;;;;;4.41;77.16;100784.00;10420633;28;20049;-70
2022/11/30 17:53:43;;;;;;;19.33;17.52;;;;;;;4.18;78.62;100794.28;10420700;28;20092;-71
2022/11/30 17:58:47;;;;;;;20.00;18.17;;;;;;;4.10;79.91;100795.09;10418890;28;20045;-70
2022/11/30 18:03:50;;;;;;;22.23;19.20;;;;;;;4.09;80.68;100785.56;10420096;28;20422;-72
2022/11/30 18:08:53;;;;;;;23.15;20.98;;;;;;;3.99;80.98;100793.28;10419122;28;20053;-71
2022/11/30 18:13:58;;;;;;;21.52;19.50;;;;;;;3.91;81.94;100791.50;10411090;28;20042;-70
2022/11/30 18:19:00;;;;;;;27.55;24.20;;;;;;;3.83;82.85;100793.16;10378772;28;20407;-71
2022/11/30 18:24:02;;;;;;;39.90;27.55;;;;;;;3.84;84.65;100800.09;10378386;28;20042;-72
2022/11/30 18:29:04;;;;;;;50.53;30.67;;;;;;;3.81;85.02;100811.38;10378053;28;20052;-71
2022/11/30 18:34:07;;;;;;;45.42;31.45;;;;;;;3.74;86.17;100814.75;10376358;28;20088;-70
2022/11/30 18:39:08;;;;;;;57.33;33.85;;;;;;;3.64;87.00;100826.81;10377663;28;20045;-69
2022/11/30 18:44:10;;;;;;;59.05;34.20;;;;;;;3.56;88.17;100827.59;10377909;28;20066;-72
2022/11/30 18:49:12;;;;;;;60.88;35.40;;;;;;;3.54;88.79;100823.28;10382443;28;20041;-71
2022/11/30 18:54:14;;;;;;;66.57;38.42;;;;;;;3.48;89.24;100830.97;10378661;28;20080;-70
2022/11/30 18:59:16;;;;;;;68.85;38.10;;;;;;;3.39;89.88;100832.63;10377930;28;20037;-70
2022/11/30 19:04:18;;;;;;;74.68;38.80;;;;;;;3.43;89.92;100850.88;10376756;28;20038;-71
2022/11/30 19:09:21;;;;;;;73.90;39.58;;;;;;;3.48;90.46;100845.72;10375413;28;20451;-71
2022/11/30 19:14:23;;;;;;;82.30;40.45;;;;;;;3.56;89.83;100844.06;10375460;28;20136;-71
2022/11/30 19:19:24;;;;;;;77.35;42.08;;;;;;;3.40;90.69;100847.34;10376224;28;20574;-71
2022/11/30 19:24:26;;;;;;;88.63;45.65;;;;;;;3.29;91.75;100842.94;10411830;28;20045;-71
2022/11/30 19:29:28;;;;;;;83.22;43.95;;;;;;;3.12;93.06;100844.47;10414998;22;20045;-73
2022/11/30 19:34:30;;;;;;;82.93;43.00;;;;;;;3.35;92.84;100855.09;10378509;28;20462;-74
2022/11/30 19:39:32;;;;;;;86.30;45.28;;;;;;;3.44;90.75;100856.94;10378946;28;20410;-74
2022/11/30 19:44:34;;;;;;;81.53;42.88;;;;;;;3.42;89.50;100850.88;10408346;28;20034;-74
2022/11/30 19:49:44;;;;;;;81.20;42.67;;;;;;;3.09;92.30;100853.94;10394565;28;20049;-74
2022/11/30 19:54:46;;;;;;;85.03;43.58;;;;;;;3.07;91.69;100859.13;10427168;28;20033;-74
2022/11/30 19:59:48;;;;;;;86.05;44.35;;;;;;;2.97;92.38;100860.75;10386667;28;20056;-73
2022/11/30 20:04:50;;;;;;;85.90;45.15;;;;;;;2.74;94.11;100873.41;10389451;28;20042;-75
2022/11/30 20:09:52;;;;;;;88.38;44.63;;;;;;;3.04;92.26;100880.72;10386544;28;20418;-74
2022/11/30 20:14:54;;;;;;;84.22;42.72;;;;;;;2.90;92.03;100878.81;10389966;28;20042;-73
2022/11/30 20:19:55;;;;;;;82.28;40.83;;;;;;;2.61;93.04;100881.91;10388313;28;20038;-75
2022/11/30 20:24:57;;;;;;;81.57;39.83;;;;;;;2.70;91.05;100878.53;10387290;28;20096;-74
2022/11/30 20:29:59;;;;;;;79.10;40.08;;;;;;;2.51;91.81;100880.88;10383474;28;20037;-74
2022/11/30 20:35:01;;;;;;;84.15;40.83;;;;;;;2.35;94.09;100891.91;10382606;28;20559;-74
2022/11/30 20:40:04;;;;;;;84.55;40.88;;;;;;;2.26;93.88;100900.41;10382368;28;20042;-74
2022/11/30 20:45:06;;;;;;;87.10;42.70;;;;;;;2.12;94.18;100901.91;10384295;28;20041;-74
2022/11/30 20:50:08;;;;;;;88.65;41.78;;;;;;;1.81;95.76;100910.88;10383446;28;20092;-74
2022/11/30 20:55:10;;;;;;;82.00;40.22;;;;;;;1.80;96.92;100909.13;10382437;28;20100;-74
2022/11/30 21:00:13;;;;;;;89.57;41.95;;;;;;;1.52;97.65;100912.94;10383858;28;20407;-75
2022/11/30 21:05:17;;;;;;;89.25;41.47;;;;;;;1.65;97.50;100906.28;10385453;28;20073;-74
2022/11/30 21:10:19;;;;;;;85.75;40.28;;;;;;;1.71;96.87;100916.75;10384385;28;20037;-74
2022/11/30 21:15:21;;;;;;;81.55;38.70;;;;;;;1.65;96.87;100906.28;10381310;28;20108;-74
2022/11/30 21:20:23;;;;;;;81.82;38.78;;;;;;;1.61;97.22;100920.03;10382919;28;20497;-75
2022/11/30 21:25:26;;;;;;;77.82;37.97;;;;;;;1.41;97.94;100920.50;10380128;28;20049;-74
2022/11/30 21:30:27;;;;;;;82.40;38.53;;;;;;;1.47;98.63;100919.75;10381779;28;20434;-75
2022/11/30 21:35:29;;;;;;;79.22;38.42;;;;;;;1.52;97.65;100929.38;10380470;28;20042;-74
2022/11/30 21:40:30;;;;;;;89.55;40.38;;;;;;;1.37;99.34;100923.00;10378010;28;20499;-74
2022/11/30 21:45:32;;;;;;;89.45;40.40;;;;;;;1.42;98.87;100932.63;10379121;28;20054;-74
2022/11/30 21:50:34;;;;;;;89.75;41.92;;;;;;;1.31;99.75;100928.06;10378716;28;20061;-74
2022/11/30 21:55:38;;;;;;;86.60;39.47;;;;;;;1.30;100.00;100934.09;10380314;28;20042;-74
2022/11/30 22:00:39;;;;;;;80.78;39.17;;;;;;;1.32;100.00;100930.69;10379431;28;20049;-74
2022/11/30 22:05:41;;;;;;;89.18;39.97;;;;;;;1.39;99.30;100934.28;10378399;28;20045;-74
2022/11/30 22:10:42;;;;;;;77.13;37.60;;;;;;;1.51;98.11;100927.63;10378323;28;20069;-74
2022/11/30 22:15:44;;;;;;;81.38;38.17;;;;;;;1.52;98.39;100931.94;10381339;28;20549;-74
2022/11/30 22:20:46;;;;;;;76.97;35.85;;;;;;;1.38;98.19;100936.00;10376430;28;20121;-74
2022/11/30 22:25:47;;;;;;;74.00;36.70;;;;;;;1.39;98.21;100927.38;10376017;28;20502;-74
2022/11/30 22:30:49;;;;;;;80.80;37.40;;;;;;;1.11;100.00;100930.25;10377223;28;20109;-74
2022/11/30 22:35:52;;;;;;;78.53;36.85;;;;;;;1.27;98.77;100940.06;10379217;28;20042;-74
2022/11/30 22:41:01;;;;;;;79.93;36.20;;;;;;;1.26;100.00;100926.25;10378579;28;20112;-74
2022/11/30 22:46:11;;;;;;;75.03;35.15;;;;;;;1.40;96.87;100936.88;10377932;28;20096;-74
2022/11/30 22:51:24;;;;;;;71.30;34.33;;;;;;;1.25;98.28;100931.41;10377177;28;20046;-74
2022/11/30 22:56:39;;;;;;;76.57;35.92;;;;;;;1.13;98.88;100938.94;10377315;28;20049;-73
2022/11/30 23:01:44;;;;;;;71.55;34.75;;;;;;;1.29;97.88;100941.00;10377782;28;20046;-74
2022/11/30 23:06:48;;;;;;;74.13;33.13;;;;;;;1.38;97.47;100937.72;10376150;28;20479;-74
2022/11/30 23:11:50;;;;;;;69.63;34.08;;;;;;;1.30;97.56;100937.56;10375993;28;20121;-73
2022/11/30 23:16:52;;;;;;;78.10;35.53;;;;;;;1.20;98.66;100930.44;10374556;28;20042;-73